createdAt,value
2018-02-24T00:01:04.767Z,21.62
2018-02-24T00:03:32.298Z,20.83
2018-02-24T00:05:59.815Z,22.08
2018-02-24T00:08:27.370Z,23.02
2018-02-24T00:10:54.873Z,22.23
2018-02-24T00:13:22.398Z,25.92
2018-02-24T00:15:49.911Z,21.87
2018-02-24T00:18:17.444Z,22.25
2018-02-24T00:20:44.992Z,27.08
2018-02-24T00:23:13.292Z,21.62
2018-02-24T00:25:41.582Z,21.87
2018-02-24T00:28:09.125Z,17.83
2018-02-24T00:30:36.644Z,20.75
2018-02-24T00:33:04.180Z,17.35
2018-02-24T00:35:31.742Z,17.35
2018-02-24T00:37:59.253Z,20.08
2018-02-24T00:40:27.541Z,18.73
2018-02-24T00:42:55.821Z,22.02
2018-02-24T00:45:24.085Z,22.10
2018-02-24T00:47:52.419Z,22.58
2018-02-24T00:50:19.941Z,15.90
2018-02-24T00:52:47.459Z,19.48
2018-02-24T00:55:15.009Z,20.80
2018-02-24T00:57:42.541Z,20.92
2018-02-24T01:00:10.060Z,22.27
2018-02-24T01:02:38.348Z,22.05
2018-02-24T01:05:06.631Z,21.27
2018-02-24T01:07:34.170Z,20.00
2018-02-24T01:10:01.697Z,22.58
2018-02-24T01:12:29.254Z,19.45
2018-02-24T01:14:56.803Z,30.05
2018-02-24T01:17:24.312Z,19.20
2018-02-24T01:19:52.590Z,19.95
2018-02-24T01:22:20.880Z,15.75
2018-02-24T01:24:49.183Z,21.58
2018-02-24T01:27:16.709Z,16.58
2018-02-24T01:29:44.234Z,19.62
2018-02-24T01:32:11.745Z,24.85
2018-02-24T01:34:39.289Z,20.70
2018-02-24T01:37:06.803Z,24.75
2018-02-24T01:39:34.307Z,20.12
2018-02-24T01:42:02.614Z,21.52
2018-02-24T01:44:30.136Z,23.17
2018-02-24T01:46:57.667Z,19.50
2018-02-24T01:49:25.987Z,20.25
2018-02-24T01:51:54.286Z,23.05
2018-02-24T01:54:21.817Z,22.27
2018-02-24T01:56:49.406Z,22.55
2018-02-24T01:59:16.937Z,20.00
2018-02-24T02:01:45.217Z,20.58
2018-02-24T02:04:12.741Z,20.62
2018-02-24T02:06:40.291Z,15.60
2018-02-24T02:09:07.825Z,14.50
2018-02-24T02:11:35.350Z,23.65
2018-02-24T02:14:03.648Z,23.83
2018-02-24T02:16:31.174Z,17.37
2018-02-24T02:18:58.692Z,17.00
2018-02-24T02:21:26.225Z,18.48
2018-02-24T02:23:53.745Z,17.20
2018-02-24T02:26:21.267Z,19.10
2018-02-24T02:28:48.796Z,17.70
2018-02-24T02:31:17.078Z,15.93
2018-02-24T02:33:44.639Z,23.48
2018-02-24T02:36:12.154Z,21.02
2018-02-24T02:38:39.701Z,17.55
2018-02-24T02:41:07.225Z,16.15
2018-02-24T02:43:34.738Z,14.02
2018-02-24T02:46:02.296Z,19.20
2018-02-24T02:48:29.812Z,17.50
2018-02-24T02:50:57.334Z,16.52
2018-02-24T02:53:25.640Z,15.90
2018-02-24T02:55:53.219Z,18.92
2018-02-24T02:58:21.637Z,15.95
2018-02-24T03:00:49.193Z,15.57
2018-02-24T03:03:16.716Z,17.23
2018-02-24T03:12:28.311Z,13.23
2018-02-24T03:14:55.834Z,18.15
2018-02-24T03:17:23.351Z,15.45
2018-02-24T03:19:50.867Z,14.70
2018-02-24T03:22:18.377Z,17.87
2018-02-24T03:24:45.891Z,11.38
2018-02-24T03:27:13.426Z,18.17
2018-02-24T03:29:40.943Z,17.33
2018-02-24T03:32:08.463Z,15.98
2018-02-24T03:34:35.983Z,12.98
2018-02-24T03:37:03.512Z,16.33
2018-02-24T03:39:31.049Z,10.40
2018-02-24T03:41:59.357Z,11.48
2018-02-24T03:44:26.870Z,12.40
2018-02-24T03:46:54.375Z,11.38
2018-02-24T03:49:21.890Z,11.30
2018-02-24T03:51:49.406Z,13.35
2018-02-24T03:54:16.914Z,13.90
2018-02-24T03:56:44.453Z,14.30
2018-02-24T03:59:11.980Z,12.77
2018-02-24T04:01:39.502Z,14.52
2018-02-24T04:04:07.006Z,13.35
2018-02-24T04:06:34.529Z,14.25
2018-02-24T04:09:02.836Z,17.40
2018-02-24T04:11:30.355Z,14.15
2018-02-24T04:13:57.856Z,10.63
2018-02-24T04:16:25.401Z,13.73
2018-02-24T04:18:52.941Z,12.70
2018-02-24T04:21:20.466Z,13.20
2018-02-24T04:23:48.002Z,15.02
2018-02-24T04:26:15.532Z,17.33
2018-02-24T04:28:43.080Z,16.25
2018-02-24T04:48:29.499Z,17.42
2018-02-24T04:50:57.823Z,16.55
2018-02-24T04:53:25.343Z,13.88
2018-02-24T04:55:52.874Z,13.75
2018-02-24T04:58:20.394Z,18.23
2018-02-24T05:00:47.918Z,15.77
2018-02-24T05:03:15.457Z,17.15
2018-02-24T05:05:42.996Z,21.60
2018-02-24T05:08:10.549Z,19.48
2018-02-24T05:10:38.068Z,18.90
2018-02-24T05:13:06.346Z,14.87
2018-02-24T05:15:33.911Z,16.12
2018-02-24T05:18:01.445Z,14.18
2018-02-24T05:20:29.059Z,13.90
2018-02-24T05:22:56.613Z,16.40
2018-02-24T05:25:24.136Z,16.27
2018-02-24T05:27:51.662Z,15.50
2018-02-24T05:30:19.183Z,14.90
2018-02-24T05:32:46.712Z,15.77
2018-02-24T05:35:14.226Z,16.17
2018-02-24T05:37:42.525Z,17.20
2018-02-24T05:40:10.042Z,16.02
2018-02-24T05:42:37.563Z,17.23
2018-02-24T05:45:05.090Z,14.05
2018-02-24T05:47:32.584Z,16.27
2018-02-24T05:50:00.866Z,14.13
2018-02-24T05:52:29.139Z,16.08
2018-02-24T05:54:57.420Z,15.05
2018-02-24T05:57:25.776Z,13.95
2018-02-24T05:59:53.297Z,14.15
2018-02-24T06:02:20.827Z,14.52
2018-02-24T06:04:48.339Z,14.77
2018-02-24T06:07:15.857Z,16.35
2018-02-24T06:09:43.363Z,11.40
2018-02-24T06:12:10.866Z,15.68
2018-02-24T06:14:38.367Z,11.43
2018-02-24T06:17:05.882Z,13.10
2018-02-24T06:19:33.391Z,11.30
2018-02-24T06:22:00.911Z,11.20
2018-02-24T06:24:28.432Z,11.77
2018-02-24T06:26:55.982Z,12.10
2018-02-24T06:29:23.505Z,14.18
2018-02-24T06:31:51.019Z,9.18
2018-02-24T06:34:18.549Z,15.57
2018-02-24T06:36:46.053Z,9.27
2018-02-24T06:39:14.704Z,11.70
2018-02-24T06:41:42.251Z,12.80
2018-02-24T06:44:09.862Z,13.52
2018-02-24T06:46:37.428Z,10.50
2018-02-24T06:49:05.069Z,11.73
2018-02-24T06:51:32.600Z,10.63
2018-02-24T06:54:00.239Z,9.35
2018-02-24T06:56:28.633Z,11.38
2018-02-24T06:58:56.177Z,7.87
2018-02-24T07:01:23.772Z,11.02
2018-02-24T07:03:52.074Z,7.80
2018-02-24T07:06:20.441Z,5.70
2018-02-24T07:08:48.754Z,5.57
2018-02-24T07:11:16.302Z,6.68
2018-02-24T07:13:43.996Z,6.32
2018-02-24T07:16:11.595Z,5.30
2018-02-24T07:18:39.152Z,5.20
2018-02-24T07:21:06.755Z,7.50
2018-02-24T07:23:34.270Z,4.50
2018-02-24T07:26:01.795Z,3.22
2018-02-24T07:28:29.303Z,4.72
2018-02-24T07:30:56.830Z,3.95
2018-02-24T07:33:24.358Z,6.65
2018-02-24T07:35:51.871Z,6.07
2018-02-24T07:38:19.395Z,6.12
2018-02-24T07:40:46.933Z,3.90
2018-02-24T07:43:14.445Z,2.65
2018-02-24T07:45:42.012Z,3.90
2018-02-24T07:48:09.525Z,3.12
2018-02-24T07:50:37.032Z,3.10
2018-02-24T07:53:04.550Z,6.68
2018-02-24T07:55:32.063Z,3.35
2018-02-24T07:58:01.066Z,5.05
2018-02-24T08:00:28.587Z,3.92
2018-02-24T08:02:56.132Z,3.20
2018-02-24T08:05:23.656Z,3.53
2018-02-24T08:07:51.164Z,3.03
2018-02-24T08:10:18.680Z,3.25
2018-02-24T08:12:46.220Z,3.20
2018-02-24T08:15:13.719Z,2.62
2018-02-24T08:17:41.238Z,3.72
2018-02-24T08:20:08.785Z,3.05
2018-02-24T08:22:36.297Z,2.62
2018-02-24T08:25:03.803Z,24.60
2018-02-24T08:27:32.075Z,4.25
2018-02-24T08:29:59.588Z,7.47
2018-02-24T08:32:27.083Z,2.87
2018-02-24T08:34:54.647Z,2.03
2018-02-24T08:37:22.184Z,7.90
2018-02-24T08:39:49.687Z,11.70
2018-02-24T08:42:18.074Z,5.10
2018-02-24T08:44:46.335Z,3.12
2018-02-24T08:47:14.615Z,3.53
2018-02-24T08:49:42.897Z,2.00
2018-02-24T08:52:11.162Z,3.20
2018-02-24T08:54:39.442Z,6.20
2018-02-24T08:57:07.733Z,8.77
2018-02-24T08:59:36.031Z,4.10
2018-02-24T09:02:03.536Z,10.15
2018-02-24T09:04:31.071Z,6.00
2018-02-24T09:06:58.620Z,8.68
2018-02-24T09:09:26.134Z,3.58
2018-02-24T09:11:53.679Z,10.80
2018-02-24T09:14:22.007Z,11.07
2018-02-24T09:16:49.589Z,4.60
2018-02-24T09:19:17.088Z,5.00
2018-02-24T09:21:45.374Z,3.10
2018-02-24T09:24:13.640Z,7.97
2018-02-24T09:26:41.960Z,4.37
2018-02-24T09:29:09.494Z,11.63
2018-02-24T09:31:37.012Z,11.02
2018-02-24T09:34:04.579Z,13.82
2018-02-24T09:36:32.073Z,10.75
2018-02-24T09:38:59.602Z,3.17
2018-02-24T09:41:27.096Z,8.73
2018-02-24T09:43:54.632Z,6.55
2018-02-24T09:46:22.152Z,3.90
2018-02-24T09:48:49.649Z,4.22
2018-02-24T09:51:17.203Z,4.80
2018-02-24T09:53:44.709Z,6.97
2018-02-24T09:56:12.234Z,8.20
2018-02-24T09:58:40.576Z,5.75
2018-02-24T10:01:08.077Z,2.33
2018-02-24T10:03:35.607Z,3.50
2018-02-24T10:06:03.122Z,3.17
2018-02-24T10:08:30.619Z,4.03
2018-02-24T10:10:58.136Z,5.80
2018-02-24T10:13:25.646Z,6.50
2018-02-24T10:15:53.140Z,3.53
2018-02-24T10:18:20.681Z,4.62
2018-02-24T10:20:48.188Z,6.55
2018-02-24T10:23:15.698Z,6.65
2018-02-24T10:25:43.993Z,6.05
2018-02-24T10:28:12.278Z,2.65
2018-02-24T10:30:39.790Z,2.70
2018-02-24T10:33:09.597Z,6.93
2018-02-24T10:35:37.985Z,2.80
2018-02-24T10:38:05.525Z,3.25
2018-02-24T10:40:33.035Z,7.15
2018-02-24T10:43:01.308Z,5.05
2018-02-24T10:45:29.574Z,6.00
2018-02-24T10:47:57.862Z,6.72
2018-02-24T10:50:26.130Z,5.18
2018-02-24T10:52:53.726Z,4.35
2018-02-24T10:55:21.259Z,2.72
2018-02-24T10:57:49.519Z,5.37
2018-02-24T11:00:17.028Z,3.70
2018-02-24T11:02:44.547Z,3.97
2018-02-24T11:05:12.093Z,2.50
2018-02-24T11:07:39.651Z,4.53
2018-02-24T11:10:07.171Z,4.12
2018-02-24T11:12:34.719Z,9.40
2018-02-24T11:15:02.246Z,7.95
2018-02-24T11:17:29.764Z,3.37
2018-02-24T11:19:57.420Z,6.40
2018-02-24T11:22:36.382Z,7.45
2018-02-24T11:25:03.946Z,3.00
2018-02-24T11:27:31.467Z,4.75
2018-02-24T11:29:59.105Z,3.30
2018-02-24T11:32:26.628Z,3.83
2018-02-24T11:34:54.155Z,3.65
2018-02-24T11:37:21.700Z,14.38
2018-02-24T11:39:49.235Z,3.65
2018-02-24T11:42:17.503Z,4.28
2018-02-24T11:44:45.780Z,4.72
2018-02-24T11:47:14.062Z,3.20
2018-02-24T11:49:41.626Z,4.40
2018-02-24T11:52:09.155Z,5.00
2018-02-24T11:54:36.678Z,3.47
2018-02-24T11:57:04.181Z,5.55
2018-02-24T11:59:31.703Z,3.50
2018-02-24T12:01:59.240Z,4.70
2018-02-24T12:04:26.826Z,11.75
2018-02-24T12:06:54.367Z,3.97
2018-02-24T12:09:21.957Z,3.67
2018-02-24T12:11:49.889Z,11.55
2018-02-24T12:14:17.394Z,4.50
2018-02-24T12:16:44.935Z,4.32
2018-02-24T12:19:12.458Z,4.62
2018-02-24T12:21:39.989Z,5.32
2018-02-24T12:24:07.546Z,2.90
2018-02-24T12:26:35.072Z,5.43
2018-02-24T12:29:02.612Z,5.00
2018-02-24T12:31:30.218Z,6.10
2018-02-24T12:33:57.716Z,5.70
2018-02-24T12:36:25.239Z,5.72
2018-02-24T12:38:52.768Z,5.35
2018-02-24T12:41:20.287Z,8.68
2018-02-24T12:43:47.827Z,13.73
2018-02-24T12:46:16.103Z,6.35
2018-02-24T12:48:44.380Z,3.53
2018-02-24T12:51:11.890Z,4.18
2018-02-24T12:53:39.398Z,4.50
2018-02-24T12:56:06.950Z,3.95
2018-02-24T12:58:34.458Z,3.25
2018-02-24T13:01:02.166Z,4.35
2018-02-24T13:03:29.673Z,4.20
2018-02-24T13:05:57.226Z,5.15
2018-02-24T13:08:24.755Z,3.97
2018-02-24T13:10:52.736Z,5.50
2018-02-24T13:13:20.303Z,4.32
2018-02-24T13:15:47.913Z,3.97
2018-02-24T13:18:15.435Z,4.07
2018-02-24T13:20:42.953Z,5.65
2018-02-24T13:23:10.565Z,3.50
2018-02-24T13:25:38.102Z,4.55
2018-02-24T13:28:06.415Z,3.30
2018-02-24T13:30:34.040Z,6.97
2018-02-24T13:33:02.923Z,5.25
2018-02-24T13:35:31.322Z,4.97
2018-02-24T13:37:58.858Z,4.68
2018-02-24T13:40:27.138Z,5.25
2018-02-24T13:42:55.428Z,4.30
2018-02-24T13:45:23.738Z,7.82
2018-02-24T13:47:52.287Z,4.65
2018-02-24T13:50:20.620Z,4.68
2018-02-24T13:52:48.186Z,4.43
2018-02-24T13:55:15.690Z,4.43
2018-02-24T13:57:43.224Z,4.32
2018-02-24T14:00:10.816Z,4.87
2018-02-24T14:02:39.094Z,5.70
2018-02-24T14:05:06.623Z,5.05
2018-02-24T14:07:34.135Z,4.93
2018-02-24T14:10:01.648Z,6.05
2018-02-24T14:12:29.211Z,3.87
2018-02-24T14:14:57.517Z,4.90
2018-02-24T14:17:25.040Z,8.80
2018-02-24T14:19:52.553Z,5.40
2018-02-24T14:22:20.256Z,8.25
2018-02-24T14:24:47.795Z,5.87
2018-02-24T14:27:15.370Z,5.15
2018-02-24T14:29:43.595Z,5.35
2018-02-24T14:32:11.254Z,4.72
2018-02-24T14:34:38.792Z,4.60
2018-02-24T14:37:07.063Z,5.80
2018-02-24T14:39:35.420Z,5.75
2018-02-24T14:42:02.976Z,6.57
2018-02-24T14:44:30.533Z,5.00
2018-02-24T14:46:58.160Z,5.53
2018-02-24T14:49:25.718Z,5.80
2018-02-24T14:51:53.430Z,5.30
2018-02-24T14:54:21.078Z,4.78
2018-02-24T14:56:48.646Z,14.43
2018-02-24T14:59:16.223Z,5.75
2018-02-24T15:01:44.528Z,5.47
2018-02-24T15:04:12.806Z,4.45
2018-02-24T15:06:41.108Z,5.50
2018-02-24T15:09:08.652Z,4.47
2018-02-24T15:11:36.177Z,5.47
2018-02-24T15:14:04.507Z,4.30
2018-02-24T15:16:32.036Z,6.00
2018-02-24T15:18:59.554Z,5.53
2018-02-24T15:21:27.079Z,4.37
2018-02-24T15:23:54.595Z,4.50
2018-02-24T15:26:22.126Z,6.47
2018-02-24T15:28:49.666Z,4.00
2018-02-24T15:31:17.189Z,6.12
2018-02-24T15:33:44.707Z,6.25
2018-02-24T15:36:12.207Z,5.90
2018-02-24T15:38:40.495Z,6.50
2018-02-24T15:41:08.011Z,5.55
2018-02-24T15:43:35.538Z,5.18
2018-02-24T15:46:03.035Z,5.22
2018-02-24T15:48:30.543Z,5.60
2018-02-24T15:50:58.131Z,4.60
2018-02-24T15:53:25.785Z,5.68
2018-02-24T15:55:53.334Z,8.38
2018-02-24T15:58:20.870Z,4.28
2018-02-24T16:00:48.383Z,6.35
2018-02-24T16:03:15.896Z,4.87
2018-02-24T16:05:43.400Z,5.03
2018-02-24T16:08:10.915Z,6.03
2018-02-24T16:10:38.424Z,3.70
2018-02-24T16:13:05.949Z,12.63
2018-02-24T16:15:33.476Z,5.40
2018-02-24T16:18:01.069Z,4.15
2018-02-24T16:20:28.605Z,4.37
2018-02-24T16:22:56.112Z,4.35
2018-02-24T16:25:23.634Z,5.95
2018-02-24T16:27:51.175Z,4.75
2018-02-24T16:30:18.809Z,6.43
2018-02-24T16:32:46.340Z,5.12
2018-02-24T16:35:13.861Z,3.80
2018-02-24T16:37:42.143Z,4.07
2018-02-24T16:40:10.452Z,4.10
2018-02-24T16:42:38.104Z,6.55
2018-02-24T16:45:05.684Z,5.90
2018-02-24T16:47:33.205Z,4.18
2018-02-24T16:50:00.713Z,5.82
2018-02-24T16:52:28.278Z,7.05
2018-02-24T16:54:55.802Z,3.87
2018-02-24T16:57:23.474Z,5.18
2018-02-24T16:59:50.995Z,5.40
2018-02-24T17:02:18.510Z,5.93
2018-02-24T17:04:46.059Z,6.97
2018-02-24T17:07:13.583Z,5.62
2018-02-24T17:09:41.119Z,5.15
2018-02-24T17:12:08.691Z,6.75
2018-02-24T17:14:36.277Z,8.35
2018-02-24T17:17:03.818Z,9.57
2018-02-24T17:19:32.208Z,6.82
2018-02-24T17:21:59.711Z,6.15
2018-02-24T17:24:27.284Z,9.23
2018-02-24T17:26:54.812Z,5.32
2018-02-24T17:29:22.327Z,4.25
2018-02-24T17:31:49.862Z,8.02
2018-02-24T17:34:17.402Z,4.78
2018-02-24T17:36:44.937Z,6.47
2018-02-24T17:39:12.504Z,6.82
2018-02-24T17:41:40.076Z,5.70
2018-02-24T17:44:07.589Z,6.80
2018-02-24T17:46:35.914Z,8.43
2018-02-24T17:49:03.469Z,4.45
2018-02-24T17:51:30.990Z,4.22
2018-02-24T17:53:59.331Z,5.35
2018-02-24T17:56:26.954Z,6.10
2018-02-24T17:58:54.459Z,6.47
2018-02-24T18:01:21.973Z,6.20
2018-02-24T18:03:49.488Z,7.15
2018-02-24T18:06:17.000Z,7.00
2018-02-24T18:08:44.532Z,6.32
2018-02-24T18:11:12.075Z,6.68
2018-02-24T18:13:40.364Z,5.25
2018-02-24T18:16:08.675Z,8.88
2018-02-24T18:18:36.364Z,4.07
2018-02-24T18:21:03.948Z,10.65
2018-02-24T18:23:31.493Z,10.50
2018-02-24T18:25:59.034Z,5.43
2018-02-24T18:28:26.574Z,8.32
2018-02-24T18:30:54.144Z,6.45
2018-02-24T18:33:21.647Z,5.82
2018-02-24T18:35:49.935Z,6.70
2018-02-24T18:38:18.202Z,9.13
2018-02-24T18:40:46.487Z,5.85
2018-02-24T18:43:14.760Z,6.07
2018-02-24T18:45:43.144Z,5.10
2018-02-24T18:48:10.685Z,8.55
2018-02-24T18:50:38.212Z,5.93
2018-02-24T18:53:05.728Z,5.22
2018-02-24T18:55:33.241Z,7.25
2018-02-24T18:58:01.527Z,4.95
2018-02-24T19:00:29.061Z,4.65
2018-02-24T19:02:56.589Z,4.70
2018-02-24T19:05:24.104Z,3.47
2018-02-24T19:07:52.394Z,8.15
2018-02-24T19:10:19.969Z,4.00
2018-02-24T19:12:47.522Z,6.62
2018-02-24T19:15:15.047Z,5.93
2018-02-24T19:17:42.599Z,4.82
2018-02-24T19:20:10.145Z,5.62
2018-02-24T19:22:37.810Z,5.87
2018-02-24T19:25:05.330Z,6.00
2018-02-24T19:27:32.848Z,7.43
2018-02-24T19:30:00.371Z,6.57
2018-02-24T19:32:27.959Z,5.20
2018-02-24T19:34:55.542Z,6.90
2018-02-24T19:37:23.080Z,6.22
2018-02-24T19:39:50.620Z,6.68
2018-02-24T19:42:18.155Z,7.35
2018-02-24T19:44:45.663Z,5.60
2018-02-24T19:47:13.199Z,6.90
2018-02-24T19:49:40.715Z,6.18
2018-02-24T19:52:08.253Z,7.03
2018-02-24T19:54:35.806Z,6.25
2018-02-24T19:57:03.345Z,11.18
2018-02-24T19:59:30.883Z,6.97
2018-02-24T20:01:58.413Z,6.43
2018-02-24T20:04:25.944Z,7.25
2018-02-24T20:06:54.228Z,6.07
2018-02-24T20:09:21.744Z,8.20
2018-02-24T20:11:49.263Z,7.55
2018-02-24T20:14:16.768Z,8.15
2018-02-24T20:16:44.285Z,8.85
2018-02-24T20:19:11.819Z,9.45
2018-02-24T20:21:39.343Z,6.53
2018-02-24T20:24:06.883Z,5.93
2018-02-24T20:26:35.176Z,4.57
2018-02-24T20:29:02.691Z,5.53
2018-02-24T20:31:30.274Z,5.45
2018-02-24T20:33:58.590Z,37.03
2018-02-24T20:36:26.109Z,7.68
2018-02-24T20:38:53.682Z,5.97
2018-02-24T20:41:21.987Z,11.48
2018-02-24T20:43:49.542Z,9.48
2018-02-24T20:46:17.082Z,5.55
2018-02-24T20:48:45.390Z,5.47
2018-02-24T20:51:12.980Z,7.28
2018-02-24T20:53:40.580Z,6.70
2018-02-24T20:56:08.251Z,5.50
2018-02-24T20:58:35.776Z,6.30
2018-02-24T21:01:03.298Z,6.25
2018-02-24T21:03:30.832Z,4.85
2018-02-24T21:05:58.389Z,5.72
2018-02-24T21:08:26.058Z,7.53
2018-02-24T21:10:53.589Z,8.02
2018-02-24T21:13:21.920Z,7.03
2018-02-24T21:15:49.457Z,5.72
2018-02-24T21:18:16.972Z,5.93
2018-02-24T21:20:44.495Z,6.95
2018-02-24T21:23:12.002Z,8.32
2018-02-24T21:25:39.593Z,15.48
2018-02-24T21:28:07.161Z,5.87
2018-02-24T21:30:34.667Z,4.43
2018-02-24T21:33:02.206Z,8.85
2018-02-24T21:35:29.733Z,6.65
2018-02-24T21:37:57.261Z,7.50
2018-02-24T21:40:24.791Z,5.80
2018-02-24T21:42:52.304Z,8.25
2018-02-24T21:45:19.819Z,6.22
2018-02-24T21:47:47.360Z,11.43
2018-02-24T21:50:14.902Z,7.10
2018-02-24T21:52:42.423Z,5.62
2018-02-24T21:55:09.955Z,6.72
2018-02-24T21:57:37.467Z,6.45
2018-02-24T22:00:05.002Z,7.32
2018-02-24T22:02:32.557Z,5.90
2018-02-24T22:05:00.121Z,8.93
2018-02-24T22:07:27.631Z,8.02
2018-02-24T22:09:55.168Z,6.70
2018-02-24T22:12:22.704Z,7.18
2018-02-24T22:14:50.328Z,5.70
2018-02-24T22:17:17.961Z,5.93
2018-02-24T22:19:45.509Z,7.75
2018-02-24T22:22:13.083Z,5.93
2018-02-24T22:24:40.649Z,7.28
2018-02-24T22:27:08.164Z,6.25
2018-02-24T22:29:36.493Z,5.22
2018-02-24T22:32:04.088Z,6.87
2018-02-24T22:34:31.645Z,5.47
2018-02-24T22:36:59.181Z,6.53
2018-02-24T22:39:27.518Z,13.25
2018-02-24T22:41:55.105Z,6.80
2018-02-24T22:44:22.660Z,7.65
2018-02-24T22:46:50.181Z,7.97
2018-02-24T22:49:18.484Z,6.25
2018-02-24T22:51:46.028Z,10.45
2018-02-24T22:54:14.327Z,8.00
2018-02-24T22:56:41.895Z,5.40
2018-02-24T22:59:09.432Z,5.15
2018-02-24T23:01:37.710Z,6.95
2018-02-24T23:04:05.299Z,5.65
2018-02-24T23:06:32.814Z,11.35
2018-02-24T23:09:01.111Z,7.82
2018-02-24T23:11:28.642Z,7.90
2018-02-24T23:13:56.182Z,6.40
2018-02-24T23:16:23.716Z,7.12
2018-02-24T23:18:51.243Z,9.50
2018-02-24T23:21:18.755Z,7.75
2018-02-24T23:23:46.278Z,8.35
2018-02-24T23:26:13.818Z,7.45
2018-02-24T23:28:41.321Z,8.32
2018-02-24T23:31:08.851Z,10.85
2018-02-24T23:33:36.368Z,7.20
2018-02-24T23:36:04.067Z,8.15
2018-02-24T23:38:31.587Z,8.55
2018-02-24T23:40:59.115Z,11.63
2018-02-24T23:43:26.636Z,12.60
2018-02-24T23:45:54.194Z,8.63
2018-02-24T23:48:22.476Z,31.05
2018-02-24T23:50:50.000Z,7.28
2018-02-24T23:53:17.528Z,7.20
2018-02-24T23:55:45.066Z,6.80
2018-02-24T23:58:12.583Z,10.65
